Usak, Turkey
Current Conditions -  °F | °C
As of 2:50 PM on Friday 24 Oct 2014 (Local Time) from LTAY Reporting Station
Broken Clouds Broken Clouds  
Wind Chill: 64°   Ceiling: 10000
Heat Index: 64°   Visibility: 6mi
Dew Point: 45°   Wind: 10mph
Humidity: 49%   Direction: 200°SSW
Pressure: 29.97"   Gusts: NA
Location:  38.68°N, 29.41°E
Report Text: LTAY 241150Z 20009KT 9999 SCT035 BKN100 18/07 Q1015
Loading
Personal Weather Stations






























Interactive Weather Map
Tropical Storm Tracking
New forecast layout! Learn more

10-Day Weather Forecast

Advertisements
Track Severe Weather on mobile